WetterOnline ( https://www.wetteronline.de )

Wetter aktuell Warburg

Aktuelles Wetter: Warburg (237m)

6-stündlich | Neueste Meldungen
Ortszeit Temperatur Wetter
Fr, 03.02. 7:00 7.7° C bewölkt
Fr, 03.02. 1:00 7.2° C leichter Regen
Do, 02.02. 19:00 1.5° C leichter Regen
Do, 02.02. 13:00 0.5° C leichter Schneefall
Do, 02.02. 7:00 4.2° C leichter Regen
Do, 02.02. 1:00 4.7° C wolkig
Mi, 01.02. 19:00 2.7° C Regen
Mi, 01.02. 13:00 5.7° C bedeckt
Ortszeit Temperatur Wetter
Fr, 03.02. 8:30 7.2° C bedeckt
Fr, 03.02. 8:20 7.2° C Sprühregen
Fr, 03.02. 8:10 7.4° C Sprühregen
Fr, 03.02. 8:00 7.6° C Sprühregen
Fr, 03.02. 7:50 7.6° C Sprühregen
Fr, 03.02. 7:40 7.7° C Sprühregen
Fr, 03.02. 7:30 7.7° C bedeckt
Fr, 03.02. 7:00 7.7° C bewölkt
Fr, 03.02. 6:30 7.7° C bedeckt
Fr, 03.02. 6:00 7.7° C bedeckt
Fr, 03.02. 5:30 7.6° C bedeckt
Ortszeit Relative Feuchte Sichtweite
Fr, 03.02. 7:00 80% 30 km
Fr, 03.02. 1:00 90% 13 km
Do, 02.02. 19:00 99% 7 km
Do, 02.02. 13:00 99% 6 km
Do, 02.02. 7:00 91% 13 km
Do, 02.02. 1:00 79% 35 km
Mi, 01.02. 19:00 92% 35 km
Mi, 01.02. 13:00 71% 35 km
Ortszeit Relative Feuchte Sichtweite
Fr, 03.02. 8:30 90% 12 km
Fr, 03.02. 8:20 90% -
Fr, 03.02. 8:10 87% -
Fr, 03.02. 8:00 82% 24 km
Fr, 03.02. 7:50 82% -
Fr, 03.02. 7:40 82% -
Fr, 03.02. 7:30 80% 35 km
Fr, 03.02. 7:00 80% 30 km
Fr, 03.02. 6:30 80% 35 km
Fr, 03.02. 6:00 78% 40 km
Fr, 03.02. 5:30 81% 30 km
Ortszeit Niederschlagsmenge Niederschlagsart
Fr, 03.02. 7:00 4 l/m2 in 12 Std. Regen
Fr, 03.02. 1:00 4 l/m2 in 6 Std. Regen
Do, 02.02. 19:00 15 l/m2 in 12 Std. Schnee, Regen
Do, 02.02. 13:00 10 l/m2 in 6 Std. Schnee, Regen
Do, 02.02. 7:00 2 l/m2 in 12 Std. Regen
Do, 02.02. 1:00 1 l/m2 in 6 Std. Regen
Mi, 01.02. 19:00 7 l/m2 in 12 Std. Regen
Mi, 01.02. 13:00 0.4 l/m2 in 6 Std. Regen
Ortszeit Niederschlagsmenge Niederschlagsart
Fr, 03.02. 8:30 <0.05 l/m2 in 30 Min Schneeregen
Fr, 03.02. 8:20 keine Meldung -
Fr, 03.02. 8:10 keine Meldung -
Fr, 03.02. 8:00 <0.05 l/m2 in 1 Std. Sprühregen
Fr, 03.02. 7:50 keine Meldung -
Fr, 03.02. 7:40 keine Meldung -
Fr, 03.02. 7:30 0.0 l/m2 in 30 Min -
Fr, 03.02. 7:00 0.0 l/m2 in 1 Std. Regen
Fr, 03.02. 6:30 0.0 l/m2 in 30 Min -
Fr, 03.02. 6:00 0.0 l/m2 in 1 Std. -
Fr, 03.02. 5:30 0.0 l/m2 in 30 Min -
Ortszeit Stärke Spitze Richtung
km/h Bft. km/h Grad Sektor
Fr, 03.02. 7:00 25 4 50 260° W
Fr, 03.02. 1:00 25 4 43 260° W
Do, 02.02. 19:00 11 2 14 160° S
Do, 02.02. 13:00 6 1 31 210° SW
Do, 02.02. 7:00 18 3 47 310° NW
Do, 02.02. 1:00 28 4 57 290° W
Mi, 01.02. 19:00 22 4 76 290° W
Mi, 01.02. 13:00 33 5 72 260° W
Ortszeit Stärke Spitze Richtung
km/h Bft. km/h Grad Sektor
Fr, 03.02. 8:30 31 5 57 260° W
Fr, 03.02. 8:20 31 5 - 260° W
Fr, 03.02. 8:10 35 5 - 260° W
Fr, 03.02. 8:00 30 5 59 260° W
Fr, 03.02. 7:50 30 5 - 260° W
Fr, 03.02. 7:40 35 5 - 260° W
Fr, 03.02. 7:30 29 5 50 260° W
Fr, 03.02. 7:00 25 4 47 260° W
Fr, 03.02. 6:30 24 4 44 250° W
Fr, 03.02. 6:00 28 4 44 250° W
Fr, 03.02. 5:30 28 4 44 250° W
Ortszeit Untergrenze Bedeckung Gattung
total tief tief mittel hoch
Fr, 03.02. 7:00 570 m 7/8 7/8 - - -
Fr, 03.02. 1:00 480 m 7/8 7/8 - - -
Do, 02.02. 19:00 60 m 7/8 7/8 - - -
Do, 02.02. 13:00 150 m 8/8 8/8 - - -
Do, 02.02. 7:00 480 m 7/8 7/8 - - -
Do, 02.02. 1:00 660 m 6/8 6/8 - - -
Mi, 01.02. 19:00 690 m 7/8 7/8 - - -
Mi, 01.02. 13:00 810 m 8/8 8/8 - - -
Ortszeit Bedeckungsgrad in Achtel und Wolkenuntergrenze
Fr, 03.02. 8:30 3(390m) 8(570m)
Fr, 03.02. 8:20 3(390m) 8(570m)
Fr, 03.02. 8:10 7
Fr, 03.02. 8:00 7(540m) 7(780m)
Fr, 03.02. 7:50 7(540m) 7(780m)
Fr, 03.02. 7:40 8
Fr, 03.02. 7:30 7(540m) 7(750m) 8(1020m)
Fr, 03.02. 7:00 7(570m) 7(1230m)
Fr, 03.02. 6:30 7(570m) 8(1260m)
Fr, 03.02. 6:00 4(630m) 8(1290m)
Fr, 03.02. 5:30 2(600m) 8(1290m)
Ortszeit Luftdruck NN (hPa) Tendenz (hPa in 3 Std.)
Fr, 03.02. 7:00 1021 - 0,9
Fr, 03.02. 1:00 1024 - 0,4
Do, 02.02. 19:00 1025 + 1,0
Do, 02.02. 13:00 1024 + 1,7
Do, 02.02. 7:00 1020 + 0,5
Do, 02.02. 1:00 1018 + 0,8
Mi, 01.02. 19:00 1016 + 1,2
Mi, 01.02. 13:00 1016 - 0,6
Ortszeit Luftdruck NN (hPa) Tendenz (hPa in 3 Std.)
Fr, 03.02. 8:30 1021 - 0,9
Fr, 03.02. 8:20 1021 keine Meldung
Fr, 03.02. 8:10 1021 keine Meldung
Fr, 03.02. 8:00 1021 - 1,6
Fr, 03.02. 7:50 1021 keine Meldung
Fr, 03.02. 7:40 1021 keine Meldung
Fr, 03.02. 7:30 1021 - 0,9
Fr, 03.02. 7:00 1021 - 0,9
Fr, 03.02. 6:30 1022 - 1,2
Fr, 03.02. 6:00 1022 - 1,2
Fr, 03.02. 5:30 1022 - 0,8
Ortszeit Schneehöhe (cm)
Fr, 03.02. 7:00 0
Fr, 03.02. 1:00 0
Do, 02.02. 19:00 0
Do, 02.02. 13:00 0
Do, 02.02. 7:00 0
Do, 02.02. 1:00 0
Mi, 01.02. 19:00 0
Mi, 01.02. 13:00 0
Ortszeit Schneehöhe (cm)
Fr, 03.02. 8:30 0
Fr, 03.02. 8:20 0
Fr, 03.02. 8:10 0
Fr, 03.02. 8:00 0
Fr, 03.02. 7:50 0
Fr, 03.02. 7:40 0
Fr, 03.02. 7:30 0
Fr, 03.02. 7:00 0
Fr, 03.02. 6:30 0
Fr, 03.02. 6:00 0
Fr, 03.02. 5:30 0
Link zu dieser Seite / Seite empfehlen

Das Wetter in ...